Horseshoe Bend, Arkansas
Current Conditions -  °F | °C
As of 11:15 PM on Friday 21 Nov 2014 (Local Time) from KBVX Reporting Station
Overcast Overcast  
Wind Chill: 43°   Ceiling: 7000
Heat Index: 43°   Visibility: 0.75mi
Dew Point: 39°   Wind: 0mph
Humidity: 87%   Direction: NA
Pressure: 30.26"   Gusts: NA
Location:  36.23°N, 91.76°W
Report Text: KBVX 220515Z AUTO 00000KT 3/4SM OVC070 06/04 A3026 RMK AO1
Loading
Personal Weather Stations






























Interactive Weather Map New forecast layout! Learn more

10-Day Weather Forecast

Advertisements
Track Severe Weather on mobile